Time;durP1;ratioP1;P1;durP2;ratioP2;P2;SDS_P1;SDS_P2;PMS_P1;PMS_P2;Temp;Humidity;BMP_temperature;BMP_pressure;BME280_temperature;BME280_humidity;BME280_pressure;Samples;Min_cycle;Max_cycle;Signal;HPM_P1;HPM_P2
2022/07/14 00:00:53;;;;;;;6.70;2.83;;;15.30;99.90;;;;;;4934132;29;20462;-73
2022/07/14 00:03:19;;;;;;;4.95;2.60;;;15.30;99.90;;;;;;4935996;29;20051;-76
2022/07/14 00:05:45;;;;;;;6.93;3.67;;;15.30;99.90;;;;;;4937994;29;20052;-76
2022/07/14 00:08:10;;;;;;;7.20;2.60;;;15.30;99.90;;;;;;4937649;29;20045;-73
2022/07/14 00:10:36;;;;;;;11.23;2.97;;;15.30;99.90;;;;;;4936840;29;20043;-77
2022/07/14 00:13:02;;;;;;;6.97;2.90;;;15.20;99.90;;;;;;4938124;29;20476;-73
2022/07/14 00:15:28;;;;;;;5.72;2.90;;;15.20;99.90;;;;;;4938208;29;20459;-77
2022/07/14 00:17:56;;;;;;;6.78;2.35;;;15.10;99.90;;;;;;4938329;29;20107;-78
2022/07/14 00:20:22;;;;;;;6.85;2.83;;;15.10;99.90;;;;;;4936628;29;20075;-75
2022/07/14 00:22:48;;;;;;;5.20;3.05;;;15.00;99.90;;;;;;4937458;29;20480;-79
2022/07/14 00:25:13;;;;;;;4.82;2.78;;;15.00;99.90;;;;;;4937649;29;20178;-79
2022/07/14 00:27:43;;;;;;;6.00;2.72;;;15.00;99.90;;;;;;4937473;29;20087;-77
2022/07/14 00:30:10;;;;;;;5.90;2.28;;;15.00;99.90;;;;;;4937314;29;20044;-77
2022/07/14 00:32:35;;;;;;;4.20;2.25;;;14.90;99.90;;;;;;4937478;29;20068;-76
2022/07/14 00:35:03;;;;;;;8.50;2.80;;;14.80;99.90;;;;;;4937643;29;20047;-79
2022/07/14 00:37:28;;;;;;;4.85;2.65;;;14.80;99.90;;;;;;4937168;29;20052;-73
2022/07/14 00:39:54;;;;;;;8.38;2.83;;;14.80;99.90;;;;;;4936982;29;20043;-73
2022/07/14 00:42:40;;;;;;;8.88;3.08;;;14.80;99.90;;;;;;4937139;29;20087;-75
2022/07/14 00:45:07;;;;;;;5.88;2.75;;;14.80;99.90;;;;;;4937627;29;20051;-76
2022/07/14 00:47:34;;;;;;;8.32;3.63;;;14.70;99.90;;;;;;4937023;29;20123;-78
2022/07/14 00:50:00;;;;;;;3.53;2.55;;;14.50;99.90;;;;;;4937016;29;20052;-75
2022/07/14 00:52:28;;;;;;;5.97;3.03;;;14.90;99.90;;;;;;4936427;29;20050;-78
2022/07/14 00:54:54;;;;;;;7.78;3.65;;;;;;;;;;4937259;29;20047;-76
2022/07/14 00:57:20;;;;;;;7.10;2.42;;;14.50;99.90;;;;;;4936957;29;20109;-75
2022/07/14 00:59:47;;;;;;;13.18;2.55;;;14.70;99.90;;;;;;4935680;29;20048;-76
2022/07/14 01:02:13;;;;;;;10.90;3.00;;;14.70;99.90;;;;;;4936817;29;20058;-78
2022/07/14 01:04:39;;;;;;;5.35;2.42;;;14.70;99.90;;;;;;4936931;29;20044;-78
2022/07/14 01:07:05;;;;;;;8.15;3.05;;;14.70;99.90;;;;;;4936903;29;20090;-74
2022/07/14 01:09:30;;;;;;;5.60;2.35;;;14.70;99.90;;;;;;4936845;29;20063;-77
2022/07/14 01:11:56;;;;;;;6.55;3.40;;;14.70;99.90;;;;;;4936489;29;20044;-74
2022/07/14 01:14:22;;;;;;;3.05;2.08;;;14.60;99.90;;;;;;4935627;29;20044;-74
2022/07/14 01:16:53;;;;;;;9.95;3.35;;;14.60;99.90;;;;;;4936257;29;20074;-79
2022/07/14 01:19:20;;;;;;;8.70;2.15;;;14.60;99.90;;;;;;4936608;29;20065;-74
2022/07/14 01:21:46;;;;;;;4.18;2.20;;;14.50;99.90;;;;;;4935646;29;20055;-77
2022/07/14 01:24:11;;;;;;;4.78;2.33;;;14.50;99.90;;;;;;4936450;29;20043;-76
2022/07/14 01:26:37;;;;;;;2.53;2.20;;;14.50;99.90;;;;;;4936806;29;20062;-77
2022/07/14 01:29:03;;;;;;;8.40;2.67;;;14.50;99.90;;;;;;4936493;29;20074;-74
2022/07/14 01:31:29;;;;;;;4.53;2.85;;;14.50;99.90;;;;;;4936325;29;20507;-77
2022/07/14 01:33:54;;;;;;;6.80;3.08;;;14.50;99.90;;;;;;4936490;29;20078;-77
2022/07/14 01:36:20;;;;;;;5.78;2.85;;;14.40;99.90;;;;;;4935015;29;20125;-75
2022/07/14 01:38:46;;;;;;;8.23;2.42;;;14.50;99.90;;;;;;4936264;29;20150;-78
2022/07/14 01:41:12;;;;;;;6.47;3.00;;;14.40;99.90;;;;;;4936266;29;20489;-74
2022/07/14 01:43:38;;;;;;;5.97;2.20;;;14.40;99.90;;;;;;4936481;29;20051;-78
2022/07/14 01:46:03;;;;;;;5.75;3.67;;;14.30;99.90;;;;;;4936704;29;20070;-76
2022/07/14 01:48:29;;;;;;;5.93;2.60;;;14.30;99.90;;;;;;4936564;29;20486;-78
2022/07/14 01:50:55;;;;;;;6.22;2.20;;;14.10;99.90;;;;;;4936101;29;20043;-76
2022/07/14 01:53:20;;;;;;;9.65;2.88;;;14.10;99.90;;;;;;4936334;29;20051;-75
2022/07/14 01:55:46;;;;;;;6.18;2.90;;;14.00;99.90;;;;;;4936090;29;20067;-78
2022/07/14 01:58:11;;;;;;;4.30;2.05;;;14.00;99.90;;;;;;4935757;29;20054;-76
2022/07/14 02:00:37;;;;;;;4.32;3.47;;;13.90;99.90;;;;;;4936324;29;20040;-76
2022/07/14 02:03:03;;;;;;;5.25;2.47;;;13.80;99.90;;;;;;4935965;29;20055;-74
2022/07/14 02:05:28;;;;;;;3.65;2.03;;;13.80;99.90;;;;;;4935753;29;20090;-79
2022/07/14 02:07:54;;;;;;;4.38;2.17;;;13.70;99.90;;;;;;4935842;29;20083;-78
2022/07/14 02:13:04;;;;;;;3.03;1.98;;;;;;;;;;4936103;29;20390;-79
2022/07/14 02:15:30;;;;;;;5.28;2.58;;;;;;;;;;4935719;29;20055;-77
2022/07/14 02:17:56;;;;;;;3.53;2.17;;;13.50;99.90;;;;;;4935648;29;20505;-77
2022/07/14 02:20:22;;;;;;;4.97;2.30;;;13.50;99.90;;;;;;4934444;29;20051;-76
2022/07/14 02:22:48;;;;;;;7.97;2.10;;;14.40;99.90;;;;;;4935838;29;20052;-76
2022/07/14 02:25:13;;;;;;;7.88;2.97;;;13.30;99.90;;;;;;4935200;29;20051;-76
2022/07/14 02:27:39;;;;;;;3.83;2.47;;;;;;;;;;4935587;29;20051;-79
2022/07/14 02:30:06;;;;;;;4.80;2.95;;;13.20;99.90;;;;;;4935719;29;20123;-76
2022/07/14 02:32:32;;;;;;;6.95;2.88;;;13.20;99.90;;;;;;4935886;29;20060;-76
2022/07/14 02:34:58;;;;;;;9.57;2.83;;;13.10;99.90;;;;;;4935694;29;20120;-76
2022/07/14 02:37:24;;;;;;;8.23;3.40;;;14.30;99.90;;;;;;4935008;29;20067;-77
2022/07/14 02:39:51;;;;;;;7.18;2.58;;;;;;;;;;4935688;29;20051;-73
2022/07/14 02:42:17;;;;;;;5.53;2.53;;;;;;;;;;4934567;29;20051;-78
2022/07/14 02:44:42;;;;;;;4.28;2.72;;;13.50;99.90;;;;;;4935195;29;20047;-76
2022/07/14 02:47:08;;;;;;;2.97;1.98;;;13.10;99.90;;;;;;4935159;29;20051;-76
2022/07/14 02:49:34;;;;;;;5.10;2.30;;;13.00;99.90;;;;;;4935657;29;20127;-77
2022/07/14 02:51:59;;;;;;;4.55;2.30;;;13.00;99.90;;;;;;4918826;29;20459;-77
2022/07/14 02:54:25;;;;;;;6.70;2.78;;;13.00;99.90;;;;;;4935193;29;20047;-76
2022/07/14 02:56:51;;;;;;;4.03;2.90;;;13.00;99.90;;;;;;4935744;29;20059;-77
2022/07/14 02:59:16;;;;;;;5.88;2.38;;;13.00;99.90;;;;;;4935428;29;20445;-77
2022/07/14 03:01:42;;;;;;;5.32;2.78;;;13.00;99.90;;;;;;4934921;29;20079;-75
2022/07/14 03:04:08;;;;;;;3.10;2.15;;;12.90;99.90;;;;;;4935270;29;20479;-78
2022/07/14 03:06:33;;;;;;;6.57;2.63;;;12.90;99.90;;;;;;4935386;29;20489;-73
2022/07/14 03:08:59;;;;;;;5.78;2.33;;;12.90;99.90;;;;;;4935661;29;20130;-77
2022/07/14 03:11:25;;;;;;;5.82;3.03;;;12.80;99.90;;;;;;4934108;29;20478;-73
2022/07/14 03:13:50;;;;;;;7.35;2.25;;;12.80;99.90;;;;;;4934970;29;20053;-74
2022/07/14 03:16:16;;;;;;;4.47;2.63;;;12.70;99.90;;;;;;4935142;29;20535;-74
2022/07/14 03:18:42;;;;;;;3.38;3.03;;;12.70;99.90;;;;;;4933837;29;20047;-74
2022/07/14 03:21:12;;;;;;;8.55;3.22;;;12.70;99.90;;;;;;4934807;29;20380;-74
2022/07/14 03:23:38;;;;;;;4.65;2.53;;;12.70;99.90;;;;;;4934939;29;20043;-76
2022/07/14 03:26:04;;;;;;;4.28;2.25;;;12.60;99.90;;;;;;4934522;29;20476;-77
2022/07/14 03:28:30;;;;;;;5.15;2.90;;;12.60;99.90;;;;;;4934646;29;20083;-75
2022/07/14 03:30:56;;;;;;;5.97;2.70;;;12.60;99.90;;;;;;4934512;29;20055;-78
2022/07/14 03:33:24;;;;;;;5.88;2.40;;;12.50;99.90;;;;;;4934783;29;20054;-77
2022/07/14 03:35:50;;;;;;;5.03;3.05;;;12.50;99.90;;;;;;4934749;29;20476;-78
2022/07/14 03:38:16;;;;;;;10.15;2.88;;;12.50;99.90;;;;;;4937319;29;20064;-78
2022/07/14 03:40:42;;;;;;;8.65;3.45;;;12.50;99.90;;;;;;4938327;29;20059;-74
2022/07/14 03:43:08;;;;;;;5.50;2.92;;;12.50;99.90;;;;;;4938710;29;20464;-78
2022/07/14 03:45:33;;;;;;;5.28;2.97;;;12.40;99.90;;;;;;4938424;29;20047;-78
2022/07/14 03:47:59;;;;;;;6.03;2.90;;;12.40;99.90;;;;;;4938306;29;20039;-77
2022/07/14 03:50:25;;;;;;;5.63;3.05;;;12.40;99.90;;;;;;4938310;29;20102;-77
2022/07/14 03:52:51;;;;;;;4.97;2.60;;;12.30;99.90;;;;;;4938296;29;20106;-76
2022/07/14 03:55:16;;;;;;;4.82;2.67;;;12.30;99.90;;;;;;4938147;29;20564;-77
2022/07/14 03:57:42;;;;;;;4.22;3.00;;;12.30;99.90;;;;;;4936937;29;20103;-74
2022/07/14 04:00:09;;;;;;;4.30;2.75;;;12.30;99.90;;;;;;4937372;29;20130;-78
2022/07/14 04:02:35;;;;;;;6.35;3.70;;;12.30;99.90;;;;;;4938294;29;20119;-77
2022/07/14 04:05:00;;;;;;;4.63;2.13;;;12.30;99.90;;;;;;4938073;29;20059;-78
2022/07/14 04:07:26;;;;;;;9.45;3.40;;;12.30;99.90;;;;;;4938167;29;20126;-75
2022/07/14 04:09:52;;;;;;;4.95;2.75;;;12.30;99.90;;;;;;4938262;29;20063;-77
2022/07/14 04:12:17;;;;;;;6.55;3.55;;;12.30;99.90;;;;;;4937589;29;20079;-74
2022/07/14 04:14:43;;;;;;;6.60;3.60;;;12.30;99.90;;;;;;4937910;29;20052;-75
2022/07/14 04:17:09;;;;;;;4.03;2.90;;;12.30;99.90;;;;;;4937786;29;20126;-77
2022/07/14 04:19:35;;;;;;;5.55;2.85;;;12.40;99.90;;;;;;4937782;29;20094;-76
2022/07/14 04:22:00;;;;;;;4.82;2.72;;;12.30;99.90;;;;;;4936478;29;20490;-77
2022/07/14 04:24:26;;;;;;;7.00;3.05;;;12.40;99.90;;;;;;4936992;29;20054;-75
2022/07/14 04:26:52;;;;;;;5.53;2.50;;;12.40;99.90;;;;;;4937835;29;20534;-76
2022/07/14 04:29:17;;;;;;;4.55;2.47;;;12.50;99.90;;;;;;4937305;29;20130;-72
2022/07/14 04:31:43;;;;;;;6.30;3.75;;;12.60;99.90;;;;;;4937502;29;20114;-74
2022/07/14 04:34:10;;;;;;;8.63;2.90;;;12.60;99.90;;;;;;4937558;29;20094;-75
2022/07/14 04:36:36;;;;;;;5.45;2.75;;;12.70;99.90;;;;;;4937048;29;20051;-75
2022/07/14 04:39:04;;;;;;;4.45;2.85;;;12.80;99.90;;;;;;4937260;29;20055;-76
2022/07/14 04:41:29;;;;;;;4.90;2.17;;;12.80;99.90;;;;;;4936712;29;20485;-74
2022/07/14 04:43:55;;;;;;;5.90;2.53;;;12.90;99.90;;;;;;4936984;29;20071;-75
2022/07/14 04:46:20;;;;;;;7.68;2.75;;;13.00;99.90;;;;;;4937125;29;20043;-75
2022/07/14 04:54:15;;;;;;;5.60;2.38;;;13.10;99.90;;;;;;4937236;29;20058;-74
2022/07/14 04:56:40;;;;;;;10.45;3.28;;;13.20;99.90;;;;;;4937161;29;20052;-76
2022/07/14 04:59:06;;;;;;;4.78;2.75;;;13.30;99.90;;;;;;4937016;29;20067;-77
2022/07/14 05:01:32;;;;;;;6.80;2.90;;;13.40;99.90;;;;;;4936988;29;20338;-75
2022/07/14 05:03:57;;;;;;;3.90;2.20;;;13.40;99.90;;;;;;4937079;29;20052;-75
2022/07/14 05:06:23;;;;;;;6.03;2.42;;;13.60;99.90;;;;;;4937237;29;20459;-73
2022/07/14 05:08:49;;;;;;;3.17;2.45;;;13.60;99.90;;;;;;4936934;29;20051;-78
2022/07/14 05:11:15;;;;;;;5.57;2.50;;;13.70;99.90;;;;;;4935479;29;20119;-76
2022/07/14 05:13:40;;;;;;;5.55;2.95;;;13.70;99.90;;;;;;4935479;29;20067;-77
2022/07/14 05:16:06;;;;;;;3.38;2.17;;;13.90;99.90;;;;;;4936565;29;20059;-79
2022/07/14 05:18:32;;;;;;;4.20;2.20;;;13.90;99.90;;;;;;4935502;29;20075;-74
2022/07/14 05:20:58;;;;;;;6.90;3.08;;;14.00;99.90;;;;;;4936596;29;20043;-77
2022/07/14 05:23:23;;;;;;;4.70;2.22;;;14.00;99.90;;;;;;4936426;29;20063;-73
2022/07/14 05:25:49;;;;;;;7.65;2.30;;;14.10;99.90;;;;;;4936637;29;20055;-73
2022/07/14 05:28:15;;;;;;;7.60;2.38;;;14.20;99.90;;;;;;4936583;29;20062;-74
2022/07/14 05:30:40;;;;;;;7.28;2.55;;;14.30;99.90;;;;;;4936298;29;20091;-73
2022/07/14 05:33:07;;;;;;;5.68;1.98;;;14.40;99.90;;;;;;4936544;29;20107;-77
2022/07/14 05:35:33;;;;;;;5.45;2.15;;;14.50;99.90;;;;;;4936226;29;20054;-76
2022/07/14 05:37:59;;;;;;;3.65;1.52;;;14.60;99.90;;;;;;4935990;29;20138;-76
2022/07/14 05:40:25;;;;;;;4.32;2.17;;;14.60;99.90;;;;;;4935871;29;20051;-75
2022/07/14 05:42:50;;;;;;;4.95;3.08;;;14.70;99.90;;;;;;4935950;29;20094;-74
2022/07/14 05:45:16;;;;;;;6.88;2.35;;;14.80;99.90;;;;;;4934675;29;20040;-72
2022/07/14 05:47:42;;;;;;;2.92;2.28;;;14.90;99.90;;;;;;4935895;29;20051;-76
2022/07/14 05:50:09;;;;;;;5.32;2.10;;;15.00;99.90;;;;;;4935578;29;20453;-75
2022/07/14 05:52:35;;;;;;;2.22;1.77;;;15.10;99.90;;;;;;4935748;29;20048;-77
2022/07/14 05:55:01;;;;;;;3.90;2.08;;;15.20;99.90;;;;;;4936078;29;20082;-75
2022/07/14 05:57:27;;;;;;;3.70;2.20;;;15.30;99.90;;;;;;4935796;29;20055;-76
2022/07/14 05:59:53;;;;;;;6.38;1.92;;;15.40;99.90;;;;;;4935499;29;20060;-77
2022/07/14 06:02:19;;;;;;;1.80;1.50;;;15.40;99.90;;;;;;4935462;29;20047;-77
2022/07/14 06:04:44;;;;;;;2.70;1.63;;;15.60;99.90;;;;;;4935532;29;20054;-75
2022/07/14 06:07:10;;;;;;;4.32;1.55;;;15.60;99.90;;;;;;4935611;29;20063;-76
2022/07/14 06:09:37;;;;;;;5.82;1.40;;;15.70;99.90;;;;;;4935950;29;20059;-77
2022/07/14 06:12:07;;;;;;;3.97;2.00;;;15.80;99.90;;;;;;4935813;29;20054;-74
2022/07/14 06:14:33;;;;;;;4.60;2.97;;;15.90;99.90;;;;;;4935585;29;20083;-77
2022/07/14 06:16:59;;;;;;;5.32;1.70;;;16.00;99.90;;;;;;4935544;29;20043;-77
2022/07/14 06:19:24;;;;;;;3.90;1.60;;;16.10;99.90;;;;;;4935560;29;20102;-78
2022/07/14 06:21:50;;;;;;;4.13;2.15;;;16.20;99.90;;;;;;4935572;29;20495;-74
2022/07/14 06:24:16;;;;;;;4.68;1.65;;;16.40;99.90;;;;;;4935203;29;20566;-77
2022/07/14 06:26:42;;;;;;;7.40;2.08;;;16.50;99.90;;;;;;4935505;29;20640;-74
2022/07/14 06:29:08;;;;;;;8.65;1.40;;;16.70;99.90;;;;;;4934220;29;20502;-76
2022/07/14 06:31:35;;;;;;;4.45;1.90;;;17.10;99.90;;;;;;4935352;29;20087;-77
2022/07/14 06:34:02;;;;;;;4.20;1.55;;;18.20;99.90;;;;;;4935579;29;20060;-77
2022/07/14 06:36:27;;;;;;;1.63;1.15;;;19.60;99.90;;;;;;4935090;29;20078;-74
2022/07/14 06:38:53;;;;;;;3.10;1.00;;;20.90;99.90;;;;;;4936005;29;20476;-77
2022/07/14 06:41:22;;;;;;;2.17;1.50;;;22.10;99.90;;;;;;4935240;29;20040;-77
2022/07/14 06:43:48;;;;;;;3.33;1.38;;;23.00;99.90;;;;;;4935287;29;20392;-74
2022/07/14 06:46:15;;;;;;;3.47;1.13;;;23.60;99.90;;;;;;4935629;29;20052;-78
2022/07/14 06:48:41;;;;;;;2.65;1.35;;;23.80;99.90;;;;;;4934192;29;20507;-77
2022/07/14 06:51:07;;;;;;;3.25;1.15;;;24.10;99.30;;;;;;4934168;29;20043;-77
2022/07/14 06:53:33;;;;;;;4.07;1.15;;;24.60;94.70;;;;;;4935344;29;20465;-77
2022/07/14 06:55:59;;;;;;;2.63;1.08;;;24.90;96.90;;;;;;4933988;29;20052;-78
2022/07/14 06:58:24;;;;;;;2.47;1.08;;;25.10;95.90;;;;;;4935336;29;20050;-77
2022/07/14 07:00:50;;;;;;;5.25;1.30;;;25.30;95.00;;;;;;4935396;29;20055;-76
2022/07/14 07:03:15;;;;;;;3.90;1.27;;;25.60;94.30;;;;;;4934921;29;20052;-78
2022/07/14 07:08:25;;;;;;;2.75;1.45;;;25.80;93.20;;;;;;4935197;29;20541;-77
2022/07/14 07:10:51;;;;;;;5.53;1.08;;;26.00;93.20;;;;;;4935608;29;20059;-77
2022/07/14 07:13:17;;;;;;;2.70;1.10;;;26.10;92.30;;;;;;4936914;29;20474;-76
2022/07/14 07:15:43;;;;;;;4.72;1.10;;;26.10;92.00;;;;;;4937840;29;20079;-77
2022/07/14 07:18:08;;;;;;;2.10;0.90;;;25.70;90.50;;;;;;4939359;29;20051;-77
2022/07/14 07:20:35;;;;;;;3.38;1.27;;;25.10;90.80;;;;;;4939198;29;20445;-75
2022/07/14 07:23:02;;;;;;;2.22;0.88;;;25.50;91.20;;;;;;4939210;29;20139;-78
2022/07/14 07:25:28;;;;;;;2.92;1.02;;;26.00;90.70;;;;;;4938787;29;20102;-76
2022/07/14 07:27:53;;;;;;;8.52;1.40;;;26.00;90.70;;;;;;4938789;29;20044;-76
2022/07/14 07:30:20;;;;;;;2.58;0.98;;;25.40;90.70;;;;;;4938969;29;20092;-79
2022/07/14 07:32:46;;;;;;;3.60;1.20;;;25.00;90.60;;;;;;4938720;29;20079;-78
2022/07/14 07:35:12;;;;;;;2.22;0.77;;;24.90;90.50;;;;;;4938818;29;20540;-74
2022/07/14 07:37:38;;;;;;;3.40;0.80;;;25.50;90.30;;;;;;4938786;29;20066;-77
2022/07/14 07:40:04;;;;;;;0.93;0.80;;;25.20;89.80;;;;;;4938230;29;20047;-75
2022/07/14 07:42:30;;;;;;;0.98;0.80;;;25.60;89.80;;;;;;4937873;29;20506;-78
2022/07/14 07:44:56;;;;;;;4.95;1.17;;;25.60;88.10;;;;;;4937607;29;20083;-77
2022/07/14 07:47:23;;;;;;;1.15;0.80;;;25.60;88.00;;;;;;4938496;29;20098;-78
2022/07/14 07:49:49;;;;;;;4.03;1.00;;;26.20;86.10;;;;;;4937376;29;20055;-77
2022/07/14 07:52:15;;;;;;;1.48;1.00;;;26.10;85.20;;;;;;4938747;29;20052;-76
2022/07/14 07:54:41;;;;;;;1.17;0.60;;;25.40;86.60;;;;;;4939163;29;20536;-77
2022/07/14 07:57:07;;;;;;;1.17;0.80;;;24.10;85.70;;;;;;4938197;29;20047;-78
2022/07/14 07:59:32;;;;;;;1.98;0.75;;;23.20;86.90;;;;;;4938186;29;20098;-75
2022/07/14 08:01:58;;;;;;;1.48;0.73;;;22.80;88.90;;;;;;4936936;29;20047;-78
2022/07/14 08:04:23;;;;;;;2.17;0.90;;;23.50;87.90;;;;;;4938114;29;20062;-74
2022/07/14 08:06:49;;;;;;;3.05;0.95;;;23.90;87.40;;;;;;4937900;29;20047;-78
2022/07/14 08:09:15;;;;;;;1.38;0.70;;;24.50;87.00;;;;;;4937460;29;20132;-75
2022/07/14 08:11:41;;;;;;;1.67;0.70;;;25.30;86.90;;;;;;4937955;29;20138;-78
2022/07/14 08:14:47;;;;;;;1.35;0.68;;;25.60;84.90;;;;;;4937638;29;20051;-76
2022/07/14 08:16:56;;;;;;;1.50;1.00;;;26.00;83.70;;;;;;4937459;29;20578;-75
2022/07/14 08:19:22;;;;;;;1.85;0.70;;;25.20;83.40;;;;;;4937513;29;20043;-76
2022/07/14 08:21:48;;;;;;;4.32;1.00;;;25.20;83.80;;;;;;4937791;29;20118;-75
2022/07/14 08:24:14;;;;;;;2.08;0.70;;;25.10;84.20;;;;;;4937182;29;20445;-77
2022/07/14 08:26:40;;;;;;;0.70;0.57;;;25.00;85.20;;;;;;4938099;29;20499;-79
2022/07/14 08:29:07;;;;;;;1.55;0.80;;;24.90;85.00;;;;;;4936915;29;20130;-73
2022/07/14 08:31:33;;;;;;;1.10;0.80;;;24.70;84.30;;;;;;4937834;29;20046;-75
2022/07/14 08:33:58;;;;;;;2.95;1.23;;;24.50;85.20;;;;;;4937234;29;20059;-77
2022/07/14 08:36:24;;;;;;;2.97;1.33;;;24.50;84.60;;;;;;4936539;29;20059;-80
2022/07/14 08:38:50;;;;;;;3.15;1.23;;;24.60;83.40;;;;;;4937207;29;20062;-74
2022/07/14 08:41:16;;;;;;;2.97;0.68;;;24.90;84.10;;;;;;4936740;29;20050;-79
2022/07/14 08:43:43;;;;;;;0.70;0.70;;;24.90;83.10;;;;;;4936639;29;20050;-78
2022/07/14 08:46:09;;;;;;;4.75;1.02;;;24.90;82.90;;;;;;4936859;29;20058;-78
2022/07/14 08:48:34;;;;;;;1.05;0.60;;;24.90;83.30;;;;;;4936817;29;20048;-80
2022/07/14 08:51:00;;;;;;;2.45;0.68;;;24.60;83.80;;;;;;4935314;29;20082;-76
2022/07/14 08:53:27;;;;;;;4.30;1.00;;;24.20;83.70;;;;;;4936971;29;20052;-78
2022/07/14 08:55:53;;;;;;;2.75;0.77;;;24.00;84.40;;;;;;4937050;29;20052;-77
2022/07/14 08:58:19;;;;;;;2.90;1.33;;;23.80;84.90;;;;;;4935854;29;20409;-78
2022/07/14 09:00:44;;;;;;;1.65;0.60;;;23.90;85.00;;;;;;4936535;29;20050;-78
2022/07/14 09:03:10;;;;;;;1.00;0.70;;;24.20;85.70;;;;;;4936331;29;20058;-78
2022/07/14 09:05:41;;;;;;;2.80;0.93;;;24.40;85.30;;;;;;4935715;29;20118;-77
2022/07/14 09:08:07;;;;;;;3.28;1.15;;;24.70;83.80;;;;;;4936409;29;20111;-77
2022/07/14 09:10:33;;;;;;;1.75;0.88;;;24.70;83.90;;;;;;4935573;29;20055;-77
2022/07/14 09:13:12;;;;;;;2.30;0.75;;;24.50;83.30;;;;;;4936149;29;20134;-78
2022/07/14 09:15:44;;;;;;;3.05;0.77;;;24.50;81.20;;;;;;4936654;29;20055;-76
2022/07/14 09:18:18;;;;;;;2.00;1.00;;;23.80;83.80;;;;;;4936317;29;20512;-77
2022/07/14 09:20:44;;;;;;;3.25;1.15;;;23.30;85.40;;;;;;4936027;29;20051;-74
2022/07/14 09:23:09;;;;;;;3.75;0.93;;;23.10;86.60;;;;;;4936136;29;20070;-78
2022/07/14 09:25:37;;;;;;;1.85;0.88;;;23.10;87.20;;;;;;4936177;29;20055;-75
2022/07/14 09:28:03;;;;;;;1.27;0.50;;;23.30;87.00;;;;;;4935982;29;20047;-75
2022/07/14 09:30:31;;;;;;;2.08;0.60;;;23.70;86.40;;;;;;4935859;29;20423;-77
2022/07/14 09:33:01;;;;;;;0.88;0.73;;;24.20;85.60;;;;;;4935751;29;20481;-75
2022/07/14 09:35:40;;;;;;;3.25;0.90;;;24.30;84.50;;;;;;4934991;29;20051;-75
2022/07/14 09:38:14;;;;;;;22.35;3.17;;;24.30;82.60;;;;;;4936127;29;20077;-79
2022/07/14 09:40:39;;;;;;;1.38;0.75;;;24.10;83.20;;;;;;4934534;29;20043;-78
2022/07/14 09:43:08;;;;;;;1.10;0.63;;;23.80;84.00;;;;;;4935914;29;20516;-74
2022/07/14 09:45:38;;;;;;;1.75;0.65;;;23.90;84.40;;;;;;4936169;29;20104;-79
2022/07/14 09:48:08;;;;;;;2.00;1.00;;;24.10;84.50;;;;;;4935637;29;20047;-78
2022/07/14 09:50:40;;;;;;;7.78;0.90;;;24.40;84.00;;;;;;4935598;29;20371;-77
2022/07/14 09:53:15;;;;;;;7.33;1.80;;;24.50;83.10;;;;;;4935509;29;20527;-77
2022/07/14 09:56:00;;;;;;;3.65;1.00;;;24.10;84.00;;;;;;4935700;29;20159;-76
2022/07/14 09:58:33;;;;;;;2.03;0.70;;;24.10;82.90;;;;;;4935392;29;20084;-77
2022/07/14 10:01:03;;;;;;;0.45;0.40;;;23.90;84.00;;;;;;4934869;29;20047;-78
2022/07/14 10:03:32;;;;;;;2.42;0.88;;;23.80;85.10;;;;;;4935116;29;20103;-78
2022/07/14 10:05:59;;;;;;;1.00;0.77;;;23.80;85.80;;;;;;4934797;29;20051;-75
2022/07/14 10:08:28;;;;;;;1.33;0.80;;;23.80;85.60;;;;;;4934682;29;20048;-76
2022/07/14 10:10:55;;;;;;;1.35;0.68;;;24.00;85.30;;;;;;4934734;29;20048;-76
2022/07/14 10:13:21;;;;;;;0.82;0.63;;;24.00;85.40;;;;;;4932593;29;20052;-73
2022/07/14 10:15:52;;;;;;;0.75;0.70;;;24.10;85.10;;;;;;4934024;29;20051;-73
2022/07/14 10:18:20;;;;;;;1.48;0.70;;;24.20;84.40;;;;;;4934749;29;20084;-76
2022/07/14 10:20:48;;;;;;;3.60;0.60;;;24.20;85.10;;;;;;4933984;29;20054;-75
2022/07/14 10:23:14;;;;;;;1.58;0.82;;;24.10;85.40;;;;;;4934307;29;20051;-78
2022/07/14 10:25:41;;;;;;;2.42;1.08;;;24.00;85.40;;;;;;4935183;29;20054;-76
2022/07/14 10:28:07;;;;;;;1.95;0.80;;;24.20;85.10;;;;;;4934941;29;20059;-76
2022/07/14 10:31:02;;;;;;;2.05;0.85;;;24.40;85.20;;;;;;4933558;29;20115;-75
2022/07/14 10:34:01;;;;;;;0.52;0.50;;;24.50;83.70;;;;;;4935012;29;20079;-74
2022/07/14 10:36:39;;;;;;;1.98;0.88;;;24.40;83.60;;;;;;4934475;29;20094;-77
2022/07/14 10:39:38;;;;;;;3.08;0.90;;;24.60;84.60;;;;;;4934649;29;20480;-78
2022/07/14 10:42:15;;;;;;;0.85;0.80;;;24.20;80.70;;;;;;4934580;29;20046;-74
2022/07/14 10:44:45;;;;;;;2.35;0.77;;;24.00;83.30;;;;;;4934857;29;20056;-74
2022/07/14 10:47:16;;;;;;;2.22;0.90;;;23.80;84.40;;;;;;4935381;29;20122;-75
2022/07/14 10:50:02;;;;;;;1.20;0.60;;;23.70;85.20;;;;;;4935312;29;20047;-75
2022/07/14 10:52:31;;;;;;;2.03;0.60;;;23.70;84.10;;;;;;4934852;29;20043;-74
2022/07/14 10:55:14;;;;;;;4.35;0.82;;;23.70;85.50;;;;;;4934877;29;20172;-75
2022/07/14 10:57:59;;;;;;;2.03;0.82;;;23.20;83.60;;;;;;4934783;29;20051;-76
2022/07/14 11:00:55;;;;;;;2.15;0.95;;;23.10;85.70;;;;;;4934614;29;20087;-73
2022/07/14 11:03:33;;;;;;;1.48;0.90;;;22.70;86.70;;;;;;4934721;29;20064;-76
2022/07/14 11:06:08;;;;;;;3.50;1.20;;;22.90;87.40;;;;;;4933809;29;20090;-77
2022/07/14 11:08:39;;;;;;;1.30;0.93;;;22.90;85.80;;;;;;4934537;29;20490;-77
2022/07/14 11:11:15;;;;;;;1.13;0.95;;;22.80;86.30;;;;;;4934975;29;20044;-74
2022/07/14 11:13:59;;;;;;;2.67;0.60;;;22.60;86.60;;;;;;4934558;29;20123;-77
2022/07/14 11:16:55;;;;;;;1.80;1.17;;;22.70;89.00;;;;;;4935127;29;20059;-75
2022/07/14 11:19:50;;;;;;;0.85;0.52;;;22.60;87.80;;;;;;4934466;29;20052;-76
2022/07/14 11:22:19;;;;;;;1.55;0.63;;;22.70;87.80;;;;;;4934402;29;20047;-77
2022/07/14 11:24:48;;;;;;;1.05;0.60;;;22.10;87.50;;;;;;4933657;29;20498;-76
2022/07/14 11:27:35;;;;;;;2.47;0.80;;;22.10;88.30;;;;;;4933491;29;20055;-76
2022/07/14 11:30:22;;;;;;;1.85;0.60;;;22.10;87.90;;;;;;4934976;29;20051;-75
2022/07/14 11:33:09;;;;;;;2.00;1.08;;;21.50;88.90;;;;;;4934536;29;20054;-76
2022/07/14 11:38:34;;;;;;;1.90;0.82;;;21.70;90.20;;;;;;4934949;29;20150;-76
2022/07/14 11:41:02;;;;;;;2.65;0.88;;;21.70;89.80;;;;;;4934864;29;20070;-76
2022/07/14 11:43:31;;;;;;;1.08;0.80;;;21.70;90.10;;;;;;4934492;29;20079;-74
2022/07/14 11:46:06;;;;;;;0.70;0.63;;;21.90;90.40;;;;;;4934188;29;20118;-74
2022/07/14 11:48:35;;;;;;;0.85;0.80;;;21.90;90.30;;;;;;4934570;29;20051;-74
2022/07/14 11:51:10;;;;;;;2.13;1.10;;;22.10;90.50;;;;;;4934117;29;20059;-75
2022/07/14 11:53:37;;;;;;;8.45;1.27;;;22.10;90.00;;;;;;4934384;29;20131;-76
2022/07/14 11:56:06;;;;;;;2.58;0.85;;;22.00;90.00;;;;;;4934112;29;20166;-74
2022/07/14 11:58:32;;;;;;;74.72;10.73;;;22.00;90.10;;;;;;4934978;29;20047;-76
2022/07/14 12:01:00;;;;;;;4.43;0.93;;;22.40;89.80;;;;;;4937659;29;20050;-74
2022/07/14 12:03:27;;;;;;;2.47;0.80;;;22.80;89.70;;;;;;4938120;29;20079;-76
2022/07/14 12:05:55;;;;;;;1.60;0.90;;;23.00;88.20;;;;;;4937330;29;20350;-75
2022/07/14 12:08:25;;;;;;;3.30;0.75;;;22.80;88.00;;;;;;4937353;29;20473;-74
2022/07/14 12:10:52;;;;;;;1.25;1.13;;;22.70;87.80;;;;;;4936489;29;20048;-77
2022/07/14 12:13:18;;;;;;;2.78;0.68;;;22.80;87.90;;;;;;4937395;29;20165;-74
2022/07/14 12:15:45;;;;;;;2.92;0.80;;;23.00;87.40;;;;;;4937407;29;20071;-74
2022/07/14 12:18:12;;;;;;;1.83;0.80;;;23.10;87.10;;;;;;4937096;29;20488;-74
2022/07/14 12:20:46;;;;;;;1.30;0.73;;;23.10;86.50;;;;;;4937559;29;20047;-74
2022/07/14 12:23:14;;;;;;;1.67;0.90;;;22.80;86.40;;;;;;4937453;29;20131;-74
2022/07/14 12:25:43;;;;;;;0.85;0.55;;;22.80;87.70;;;;;;4937732;29;20055;-77
2022/07/14 12:28:12;;;;;;;1.85;0.70;;;22.40;86.60;;;;;;4937489;29;20055;-74
2022/07/14 12:30:51;;;;;;;1.92;1.02;;;22.40;87.40;;;;;;4937248;29;20655;-75
2022/07/14 12:33:21;;;;;;;4.78;0.90;;;22.40;86.90;;;;;;4937330;29;20506;-77
2022/07/14 12:35:50;;;;;;;1.88;0.90;;;22.50;88.10;;;;;;4937325;29;20047;-76
2022/07/14 12:38:17;;;;;;;3.92;1.33;;;23.00;87.70;;;;;;4937546;29;20063;-76
2022/07/14 12:40:46;;;;;;;2.42;0.80;;;23.20;85.70;;;;;;4937032;29;20124;-75
2022/07/14 12:43:12;;;;;;;1.48;0.88;;;23.20;85.50;;;;;;4937054;29;20146;-74
2022/07/14 12:46:18;;;;;;;4.10;1.02;;;23.10;84.80;;;;;;4937099;29;20055;-74
2022/07/14 12:48:49;;;;;;;3.17;0.75;;;22.60;86.00;;;;;;4937239;29;20509;-73
2022/07/14 12:51:44;;;;;;;5.15;1.63;;;22.50;86.80;;;;;;4937006;29;20044;-74
2022/07/14 12:54:17;;;;;;;1.73;1.00;;;22.40;86.20;;;;;;4936982;29;20049;-75
2022/07/14 12:56:53;;;;;;;4.53;1.10;;;22.40;86.90;;;;;;4936991;29;20141;-76
2022/07/14 12:59:24;;;;;;;3.03;0.80;;;22.30;86.30;;;;;;4936814;29;20079;-77
2022/07/14 13:02:02;;;;;;;3.63;0.93;;;22.30;87.10;;;;;;4936672;29;20050;-78
2022/07/14 13:04:34;;;;;;;0.93;0.70;;;22.10;86.80;;;;;;4936953;29;20063;-76
2022/07/14 13:07:21;;;;;;;4.93;1.55;;;22.00;89.10;;;;;;4936910;29;20134;-75